Terminal Aerodrome Forecast
Issued by NWS

Home | Current Version | Previous Version | Text Only | Print | Product List | Glossary On
Versions: 1 2 3 4 5 6 7 8 9 10 11 12 13 14 15 16 17 18 19 20 21 22 23 24 25 26 27 28
000
FTUS41 KBOX 261729
TAFBED
TAF
KBED 261729Z 2618/2718 22006KT P6SM -SHRA BKN025
     FM262100 21007KT 3SM -SHRA OVC015
     FM270000 20007KT 3SM -SHRA BR BKN008
     FM270300 27006KT 3SM -SHRA BR OVC008
     FM270500 33005KT 5SM -SHRA BR OVC015
     FM271300 34004KT P6SM OVC025=

USA.gov is the U.S. government's official web portal to all federal, state and local government web resources and services.